createdAt,value
2023-05-21T00:01:16.645Z,100.00
2023-05-21T00:03:21.696Z,100.00
2023-05-21T00:05:26.470Z,100.00
2023-05-21T00:07:33.380Z,100.00
2023-05-21T00:09:38.816Z,100.00
2023-05-21T00:11:43.846Z,100.00
2023-05-21T00:13:48.934Z,100.00
2023-05-21T00:15:53.697Z,100.00
2023-05-21T00:18:01.511Z,100.00
2023-05-21T00:20:10.215Z,100.00
2023-05-21T00:22:16.198Z,100.00
2023-05-21T00:24:21.146Z,100.00
2023-05-21T00:26:27.046Z,100.00
2023-05-21T00:28:35.198Z,100.00
2023-05-21T00:30:40.347Z,100.00
2023-05-21T00:32:45.244Z,100.00
2023-05-21T00:34:52.783Z,100.00
2023-05-21T00:36:58.569Z,100.00
2023-05-21T00:39:04.775Z,100.00
2023-05-21T00:41:09.713Z,100.00
2023-05-21T00:43:15.655Z,100.00
2023-05-21T00:45:20.667Z,100.00
2023-05-21T00:47:27.635Z,100.00
2023-05-21T00:49:33.550Z,100.00
2023-05-21T00:51:41.251Z,100.00
2023-05-21T00:53:48.346Z,100.00
2023-05-21T00:55:53.800Z,100.00
2023-05-21T00:58:00.031Z,100.00
2023-05-21T01:00:07.354Z,100.00
2023-05-21T01:02:14.494Z,100.00
2023-05-21T01:04:20.602Z,100.00
2023-05-21T01:06:27.880Z,100.00
2023-05-21T01:08:36.717Z,100.00
2023-05-21T01:10:41.834Z,100.00
2023-05-21T01:12:47.734Z,100.00
2023-05-21T01:14:55.908Z,100.00
2023-05-21T01:17:03.108Z,100.00
2023-05-21T01:19:11.209Z,100.00
2023-05-21T01:21:17.596Z,100.00
2023-05-21T01:23:25.226Z,100.00
2023-05-21T01:25:34.900Z,100.00
2023-05-21T01:27:40.215Z,100.00
2023-05-21T01:29:45.211Z,100.00
2023-05-21T01:32:09.998Z,100.00
2023-05-21T01:34:18.126Z,100.00
2023-05-21T01:36:27.892Z,100.00
2023-05-21T01:38:41.057Z,100.00
2023-05-21T01:40:50.555Z,100.00
2023-05-21T01:42:56.268Z,100.00
2023-05-21T01:45:02.903Z,100.00
2023-05-21T01:47:08.719Z,100.00
2023-05-21T01:49:14.705Z,100.00
2023-05-21T01:51:20.043Z,100.00
2023-05-21T01:53:25.171Z,100.00
2023-05-21T01:55:32.723Z,100.00
2023-05-21T01:57:37.779Z,100.00
2023-05-21T01:59:44.487Z,100.00
2023-05-21T02:01:49.543Z,100.00
2023-05-21T02:03:54.753Z,100.00
2023-05-21T02:05:59.610Z,100.00
2023-05-21T02:08:05.638Z,100.00
2023-05-21T02:10:11.760Z,100.00
2023-05-21T02:12:19.423Z,100.00
2023-05-21T02:14:25.481Z,100.00
2023-05-21T02:16:30.578Z,100.00
2023-05-21T02:18:36.797Z,100.00
2023-05-21T02:20:42.041Z,100.00
2023-05-21T02:22:48.331Z,100.00
2023-05-21T02:24:53.510Z,100.00
2023-05-21T02:27:03.676Z,100.00
2023-05-21T02:29:11.566Z,100.00
2023-05-21T02:31:16.616Z,100.00
2023-05-21T02:33:22.134Z,100.00
2023-05-21T02:35:27.458Z,100.00
2023-05-21T02:37:34.088Z,100.00
2023-05-21T02:39:52.521Z,100.00
2023-05-21T02:41:57.475Z,100.00
2023-05-21T02:44:02.507Z,100.00
2023-05-21T02:46:11.299Z,100.00
2023-05-21T02:48:16.353Z,100.00
2023-05-21T02:50:23.012Z,100.00
2023-05-21T02:52:33.734Z,100.00
2023-05-21T02:54:38.687Z,100.00
2023-05-21T02:56:43.694Z,100.00
2023-05-21T02:58:48.777Z,100.00
2023-05-21T03:00:54.066Z,100.00
2023-05-21T03:03:02.106Z,100.00
2023-05-21T03:05:08.025Z,100.00
2023-05-21T03:07:14.221Z,100.00
2023-05-21T03:09:19.342Z,100.00
2023-05-21T03:11:24.086Z,100.00
2023-05-21T03:13:28.972Z,100.00
2023-05-21T03:15:34.076Z,100.00
2023-05-21T03:17:38.929Z,100.00
2023-05-21T03:19:49.259Z,100.00
2023-05-21T03:21:56.724Z,100.00
2023-05-21T03:24:02.256Z,100.00
2023-05-21T03:26:07.587Z,100.00
2023-05-21T03:28:12.883Z,100.00
2023-05-21T03:30:22.283Z,100.00
2023-05-21T03:32:49.950Z,100.00
2023-05-21T03:34:57.540Z,100.00
2023-05-21T03:37:02.559Z,100.00
2023-05-21T03:39:08.548Z,100.00
2023-05-21T03:41:13.733Z,100.00
2023-05-21T03:43:21.147Z,100.00
2023-05-21T03:45:26.336Z,100.00
2023-05-21T03:47:51.854Z,100.00
2023-05-21T03:49:59.561Z,100.00
2023-05-21T03:52:05.418Z,100.00
2023-05-21T03:54:10.826Z,100.00
2023-05-21T03:56:16.213Z,100.00
2023-05-21T03:58:21.276Z,100.00
2023-05-21T04:00:26.457Z,100.00
2023-05-21T04:02:31.580Z,100.00
2023-05-21T04:04:37.365Z,100.00
2023-05-21T04:06:45.403Z,100.00
2023-05-21T04:08:51.614Z,100.00
2023-05-21T04:10:56.629Z,100.00
2023-05-21T04:13:01.497Z,100.00
2023-05-21T04:15:07.354Z,100.00
2023-05-21T04:17:13.513Z,100.00
2023-05-21T04:19:19.328Z,100.00
2023-05-21T04:21:24.823Z,100.00
2023-05-21T04:23:32.375Z,100.00
2023-05-21T04:25:39.128Z,100.00
2023-05-21T04:27:47.940Z,100.00
2023-05-21T04:29:54.996Z,100.00
2023-05-21T04:32:02.280Z,100.00
2023-05-21T04:34:07.334Z,100.00
2023-05-21T04:36:12.759Z,100.00
2023-05-21T04:38:19.941Z,100.00
2023-05-21T04:40:27.576Z,100.00
2023-05-21T04:42:33.308Z,100.00
2023-05-21T04:44:39.063Z,100.00
2023-05-21T04:46:46.315Z,100.00
2023-05-21T04:48:52.874Z,100.00
2023-05-21T04:50:58.408Z,100.00
2023-05-21T04:53:03.562Z,100.00
2023-05-21T04:55:09.696Z,100.00
2023-05-21T04:57:19.015Z,100.00
2023-05-21T04:59:24.022Z,100.00
2023-05-21T05:01:35.693Z,100.00
2023-05-21T05:03:40.901Z,100.00
2023-05-21T05:05:45.954Z,100.00
2023-05-21T05:07:51.035Z,100.00
2023-05-21T05:09:55.854Z,100.00
2023-05-21T05:12:01.749Z,100.00
2023-05-21T05:14:10.086Z,100.00
2023-05-21T05:16:25.303Z,100.00
2023-05-21T05:18:34.295Z,100.00
2023-05-21T05:20:39.668Z,100.00
2023-05-21T05:22:44.661Z,100.00
2023-05-21T05:24:51.268Z,100.00
2023-05-21T05:26:57.045Z,100.00
2023-05-21T05:29:02.085Z,100.00
2023-05-21T05:31:09.630Z,100.00
2023-05-21T05:33:14.730Z,100.00
2023-05-21T05:35:19.530Z,100.00
2023-05-21T05:37:24.580Z,100.00
2023-05-21T05:39:29.523Z,100.00
2023-05-21T05:41:34.625Z,100.00
2023-05-21T05:43:39.756Z,100.00
2023-05-21T05:45:44.766Z,100.00
2023-05-21T05:47:55.374Z,100.00
2023-05-21T05:50:00.431Z,100.00
2023-05-21T05:52:05.234Z,100.00
2023-05-21T05:54:10.318Z,100.00
2023-05-21T05:56:17.839Z,100.00
2023-05-21T05:58:23.120Z,100.00
2023-05-21T06:00:42.133Z,100.00
2023-05-21T06:02:48.493Z,100.00
2023-05-21T06:04:56.396Z,100.00
2023-05-21T06:07:01.522Z,100.00
2023-05-21T06:09:06.678Z,100.00
2023-05-21T06:11:12.477Z,100.00
2023-05-21T06:13:17.727Z,100.00
2023-05-21T06:15:23.732Z,100.00
2023-05-21T06:17:32.008Z,100.00
2023-05-21T06:19:46.406Z,100.00
2023-05-21T06:21:55.299Z,100.00
2023-05-21T06:24:00.302Z,100.00
2023-05-21T06:26:07.073Z,100.00
2023-05-21T06:28:12.713Z,100.00
2023-05-21T06:30:17.462Z,100.00
2023-05-21T06:32:23.334Z,100.00
2023-05-21T06:34:28.912Z,100.00
2023-05-21T06:36:33.899Z,100.00
2023-05-21T06:38:42.929Z,100.00
2023-05-21T06:40:48.147Z,100.00
2023-05-21T06:43:05.083Z,100.00
2023-05-21T06:45:36.290Z,100.00
2023-05-21T06:47:52.344Z,100.00
2023-05-21T06:49:57.178Z,100.00
2023-05-21T06:52:02.386Z,100.00
2023-05-21T06:54:10.425Z,100.00
2023-05-21T06:56:20.134Z,100.00
2023-05-21T06:58:25.769Z,100.00
2023-05-21T07:00:30.859Z,100.00
2023-05-21T07:02:39.573Z,100.00
2023-05-21T07:04:44.714Z,100.00
2023-05-21T07:06:50.106Z,100.00
2023-05-21T07:08:55.111Z,100.00
2023-05-21T07:11:03.131Z,100.00
2023-05-21T07:13:08.693Z,100.00
2023-05-21T07:15:14.568Z,100.00
2023-05-21T07:17:19.668Z,100.00
2023-05-21T07:19:24.893Z,100.00
2023-05-21T07:21:29.650Z,100.00
2023-05-21T07:23:34.979Z,100.00
2023-05-21T07:25:40.749Z,100.00
2023-05-21T07:27:48.458Z,100.00
2023-05-21T07:29:53.408Z,100.00
2023-05-21T07:32:00.989Z,100.00
2023-05-21T07:34:06.357Z,100.00
2023-05-21T07:36:11.608Z,100.00
2023-05-21T07:38:16.331Z,100.00
2023-05-21T07:40:21.404Z,100.00
2023-05-21T07:42:26.517Z,100.00
2023-05-21T07:44:36.155Z,100.00
2023-05-21T07:46:44.076Z,100.00
2023-05-21T07:48:50.554Z,100.00
2023-05-21T07:50:58.336Z,100.00
2023-05-21T07:53:04.281Z,100.00
2023-05-21T07:55:11.611Z,100.00
2023-05-21T07:57:18.608Z,100.00
2023-05-21T07:59:37.856Z,100.00
2023-05-21T08:01:43.802Z,100.00
2023-05-21T08:03:59.538Z,100.00
2023-05-21T08:06:04.700Z,100.00
2023-05-21T08:08:10.680Z,100.00
2023-05-21T08:10:19.202Z,100.00
2023-05-21T08:12:25.703Z,100.00
2023-05-21T08:14:30.491Z,100.00
2023-05-21T08:16:38.209Z,100.00
2023-05-21T08:18:43.288Z,100.00
2023-05-21T08:20:48.590Z,100.00
2023-05-21T08:22:57.064Z,100.00
2023-05-21T08:25:02.637Z,100.00
2023-05-21T08:27:08.486Z,100.00
2023-05-21T08:29:13.632Z,100.00
2023-05-21T08:31:21.567Z,100.00
2023-05-21T08:33:32.309Z,100.00
2023-05-21T08:35:38.090Z,100.00
2023-05-21T08:37:54.570Z,100.00
2023-05-21T08:40:17.969Z,100.00
2023-05-21T08:42:36.868Z,100.00
2023-05-21T08:44:51.067Z,100.00
2023-05-21T08:47:00.181Z,100.00
2023-05-21T08:49:11.711Z,100.00
2023-05-21T08:51:16.862Z,100.00
2023-05-21T08:53:29.091Z,100.00
2023-05-21T08:55:38.899Z,100.00
2023-05-21T08:57:46.969Z,100.00
2023-05-21T08:59:54.967Z,100.00
2023-05-21T09:02:04.946Z,100.00
2023-05-21T09:04:21.368Z,100.00
2023-05-21T09:06:34.135Z,100.00
2023-05-21T09:08:47.018Z,100.00
2023-05-21T09:11:09.363Z,100.00
2023-05-21T09:13:24.289Z,100.00
2023-05-21T09:15:29.989Z,100.00
2023-05-21T09:17:36.077Z,100.00
2023-05-21T09:20:17.677Z,100.00
2023-05-21T09:22:28.892Z,100.00
2023-05-21T09:24:36.292Z,100.00
2023-05-21T09:26:45.740Z,100.00
2023-05-21T09:28:51.615Z,99.77
2023-05-21T09:30:57.668Z,99.58
2023-05-21T09:33:03.662Z,98.05
2023-05-21T09:35:11.076Z,98.66
2023-05-21T09:37:27.167Z,99.31
2023-05-21T09:39:33.653Z,98.77
2023-05-21T09:41:41.363Z,94.72
2023-05-21T09:43:47.519Z,96.74
2023-05-21T09:45:55.853Z,97.23
2023-05-21T09:48:04.576Z,96.19
2023-05-21T09:50:12.133Z,94.91
2023-05-21T09:52:26.541Z,95.12
2023-05-21T09:54:35.569Z,94.12
2023-05-21T09:56:40.649Z,95.30
2023-05-21T09:58:46.348Z,95.20
2023-05-21T10:00:51.406Z,94.89
2023-05-21T10:02:58.700Z,96.13
2023-05-21T10:05:04.332Z,95.03
2023-05-21T10:07:10.108Z,94.92
2023-05-21T10:09:21.744Z,94.13
2023-05-21T10:11:29.436Z,95.00
2023-05-21T10:13:37.202Z,95.28
2023-05-21T10:15:47.810Z,95.29
2023-05-21T10:17:59.756Z,96.39
2023-05-21T10:20:05.679Z,94.50
2023-05-21T10:22:21.739Z,94.36
2023-05-21T10:24:30.293Z,93.66
2023-05-21T10:26:38.922Z,92.93
2023-05-21T10:28:44.290Z,92.82
2023-05-21T10:30:50.487Z,93.34
2023-05-21T10:33:06.247Z,93.05
2023-05-21T10:35:12.951Z,96.97
2023-05-21T10:37:19.844Z,99.38
2023-05-21T10:39:27.025Z,100.00
2023-05-21T10:41:44.630Z,100.00
2023-05-21T10:43:56.637Z,100.00
2023-05-21T10:46:39.506Z,100.00
2023-05-21T10:49:02.052Z,100.00
2023-05-21T10:51:26.502Z,100.00
2023-05-21T10:53:42.088Z,100.00
2023-05-21T10:56:03.945Z,100.00
2023-05-21T10:59:00.598Z,100.00
2023-05-21T11:01:14.595Z,100.00
2023-05-21T11:06:06.683Z,100.00
2023-05-21T11:08:30.421Z,100.00
2023-05-21T11:10:41.085Z,100.00
2023-05-21T11:13:14.418Z,99.40
2023-05-21T11:18:05.238Z,99.36
2023-05-21T11:20:13.751Z,98.63
2023-05-21T11:22:40.704Z,98.09
2023-05-21T11:24:46.886Z,98.01
2023-05-21T11:27:08.889Z,96.46
2023-05-21T11:29:19.180Z,95.52
2023-05-21T11:31:35.712Z,94.01
2023-05-21T11:33:46.387Z,91.01
2023-05-21T11:36:02.172Z,89.34
2023-05-21T11:40:44.106Z,82.11
2023-05-21T11:43:08.519Z,76.33
2023-05-21T11:45:55.355Z,77.82
2023-05-21T11:48:06.899Z,79.85
2023-05-21T11:54:03.084Z,60.98
2023-05-21T11:56:24.662Z,59.79
2023-05-21T11:58:33.961Z,59.25
2023-05-21T12:00:42.657Z,59.24
2023-05-21T12:02:49.335Z,56.71
2023-05-21T12:04:54.820Z,59.90
2023-05-21T12:07:02.519Z,54.49
2023-05-21T12:09:07.864Z,57.83
2023-05-21T12:11:13.065Z,56.46
2023-05-21T12:13:18.325Z,55.78
2023-05-21T12:15:41.627Z,56.28
2023-05-21T12:17:46.860Z,56.14
2023-05-21T12:19:57.473Z,58.05
2023-05-21T12:22:06.520Z,61.57
2023-05-21T12:24:11.423Z,61.33
2023-05-21T12:26:17.627Z,62.10
2023-05-21T12:28:24.915Z,63.34
2023-05-21T12:30:31.272Z,62.65
2023-05-21T12:32:38.346Z,62.36
2023-05-21T12:34:46.415Z,62.82
2023-05-21T12:36:53.205Z,59.91
2023-05-21T12:39:01.088Z,61.65
2023-05-21T12:41:07.774Z,59.93
2023-05-21T12:43:12.960Z,58.70
2023-05-21T12:45:19.103Z,58.46
2023-05-21T12:47:26.854Z,59.02
2023-05-21T12:49:39.593Z,60.16
2023-05-21T12:51:44.540Z,60.81
2023-05-21T12:53:49.565Z,59.49
2023-05-21T12:55:58.125Z,52.96
2023-05-21T12:58:05.368Z,51.07
2023-05-21T13:00:12.062Z,50.29
2023-05-21T13:02:25.995Z,49.83
2023-05-21T13:04:31.249Z,51.80
2023-05-21T13:06:45.130Z,52.63
2023-05-21T13:08:50.059Z,52.91
2023-05-21T13:10:57.413Z,54.51
2023-05-21T13:13:02.443Z,55.62
2023-05-21T13:15:09.070Z,54.34
2023-05-21T13:17:14.132Z,53.34
2023-05-21T13:19:19.101Z,53.76
2023-05-21T13:21:24.211Z,55.86
2023-05-21T13:23:29.209Z,57.28
2023-05-21T13:25:33.924Z,53.46
2023-05-21T13:27:41.813Z,54.42
2023-05-21T13:29:46.752Z,55.43
2023-05-21T13:31:51.434Z,56.54
2023-05-21T13:33:56.459Z,56.13
2023-05-21T13:36:01.616Z,56.08
2023-05-21T13:38:06.672Z,57.06
2023-05-21T13:40:15.297Z,57.24
2023-05-21T13:42:21.338Z,52.20
2023-05-21T13:44:28.950Z,51.70
2023-05-21T13:46:33.985Z,51.91
2023-05-21T13:48:39.012Z,50.08
2023-05-21T13:50:43.974Z,51.10
2023-05-21T13:52:49.153Z,50.08
2023-05-21T13:54:54.508Z,49.93
2023-05-21T13:57:01.333Z,47.48
2023-05-21T13:59:06.247Z,45.81
2023-05-21T14:03:41.433Z,44.29
2023-05-21T14:05:48.563Z,45.61
2023-05-21T14:07:53.566Z,44.06
2023-05-21T14:10:01.766Z,42.88
2023-05-21T14:12:07.775Z,42.39
2023-05-21T14:14:14.313Z,41.31
2023-05-21T14:16:23.253Z,37.52
2023-05-21T14:18:28.321Z,35.17
2023-05-21T14:20:33.439Z,33.74
2023-05-21T14:22:38.372Z,34.48
2023-05-21T14:24:43.311Z,31.81
2023-05-21T14:26:48.387Z,33.08
2023-05-21T14:28:53.320Z,32.27
2023-05-21T14:31:01.286Z,32.95
2023-05-21T14:33:09.606Z,32.79
2023-05-21T14:35:14.607Z,35.00
2023-05-21T14:37:19.862Z,34.77
2023-05-21T14:39:25.194Z,33.21
2023-05-21T14:41:30.565Z,34.21
2023-05-21T14:43:38.528Z,33.48
2023-05-21T14:45:43.547Z,34.06
2023-05-21T14:47:49.189Z,33.04
2023-05-21T14:49:56.825Z,33.32
2023-05-21T14:52:01.862Z,34.21
2023-05-21T14:54:06.987Z,35.15
2023-05-21T14:56:12.184Z,35.54
2023-05-21T14:58:17.312Z,34.94
2023-05-21T15:00:22.720Z,35.62
2023-05-21T15:02:28.161Z,34.41
2023-05-21T15:04:33.313Z,34.07
2023-05-21T15:06:41.028Z,34.79
2023-05-21T15:08:46.197Z,35.26
2023-05-21T15:10:51.248Z,35.33
2023-05-21T15:12:56.677Z,35.08
2023-05-21T15:15:04.434Z,34.83
2023-05-21T15:19:59.306Z,32.33
2023-05-21T15:22:07.341Z,33.04
2023-05-21T15:24:12.531Z,33.06
2023-05-21T15:26:17.565Z,32.24
2023-05-21T15:28:23.264Z,32.33
2023-05-21T15:30:28.451Z,33.63
2023-05-21T15:32:33.727Z,32.98
2023-05-21T15:34:41.606Z,32.31
2023-05-21T15:36:46.739Z,32.12
2023-05-21T15:39:01.816Z,32.62
2023-05-21T15:41:06.762Z,32.23
2023-05-21T15:43:12.011Z,31.70
2023-05-21T15:45:16.963Z,31.24
2023-05-21T15:47:22.000Z,30.51
2023-05-21T15:49:26.978Z,30.97
2023-05-21T15:51:31.939Z,31.01
2023-05-21T15:53:36.993Z,31.90
2023-05-21T15:55:44.964Z,31.79
2023-05-21T15:57:49.872Z,31.27
2023-05-21T16:00:14.803Z,32.79
2023-05-21T16:02:20.013Z,34.23
2023-05-21T16:04:25.056Z,34.90
2023-05-21T16:06:30.234Z,35.51
2023-05-21T16:08:35.456Z,36.51
2023-05-21T16:10:40.552Z,37.29
2023-05-21T16:12:48.221Z,38.24
2023-05-21T16:14:53.194Z,39.25
2023-05-21T16:17:01.012Z,40.08
2023-05-21T16:19:06.007Z,40.02
2023-05-21T16:21:11.232Z,40.88
2023-05-21T16:23:16.133Z,41.30
2023-05-21T16:25:21.303Z,41.91
2023-05-21T16:27:26.368Z,42.75
2023-05-21T16:29:33.956Z,43.21
2023-05-21T16:31:40.537Z,43.94
2023-05-21T16:33:45.549Z,43.94
2023-05-21T16:35:50.738Z,44.56
2023-05-21T16:37:55.880Z,45.10
2023-05-21T16:40:00.822Z,45.27
2023-05-21T16:42:05.864Z,45.76
2023-05-21T16:44:10.973Z,45.69
2023-05-21T16:46:18.656Z,44.69
2023-05-21T16:48:23.595Z,43.64
2023-05-21T16:50:28.291Z,43.12
2023-05-21T16:52:33.377Z,43.91
2023-05-21T16:54:38.657Z,43.16
2023-05-21T16:56:43.595Z,43.34
2023-05-21T16:58:48.668Z,43.45
2023-05-21T17:00:53.539Z,43.72
2023-05-21T17:03:01.255Z,44.96
2023-05-21T17:05:06.834Z,46.21
2023-05-21T17:07:11.770Z,46.41
2023-05-21T17:09:18.611Z,46.11
2023-05-21T17:11:23.954Z,47.41
2023-05-21T17:13:31.120Z,47.63
2023-05-21T17:15:36.474Z,47.96
2023-05-21T17:17:41.722Z,48.52
2023-05-21T17:19:49.377Z,49.32
2023-05-21T17:21:54.412Z,49.78
2023-05-21T17:23:59.456Z,49.65
2023-05-21T17:26:07.180Z,50.34
2023-05-21T17:28:12.162Z,51.14
2023-05-21T17:30:17.131Z,52.31
2023-05-21T17:32:21.953Z,52.52
2023-05-21T17:34:29.702Z,53.83
2023-05-21T17:36:37.411Z,54.13
2023-05-21T17:38:42.425Z,54.95
2023-05-21T17:40:53.623Z,55.33
2023-05-21T17:42:58.887Z,55.89
2023-05-21T17:45:03.900Z,56.27
2023-05-21T17:47:09.622Z,57.12
2023-05-21T17:49:14.649Z,58.00
2023-05-21T17:51:19.357Z,58.38
2023-05-21T17:53:26.920Z,60.35
2023-05-21T17:55:35.354Z,60.62
2023-05-21T17:57:40.543Z,60.76
2023-05-21T17:59:45.785Z,62.20
2023-05-21T18:01:50.935Z,62.38
2023-05-21T18:03:58.249Z,63.47
2023-05-21T18:06:03.366Z,63.68
2023-05-21T18:08:10.282Z,64.35
2023-05-21T18:10:18.241Z,65.10
2023-05-21T18:12:23.221Z,65.53
2023-05-21T18:14:28.165Z,67.10
2023-05-21T18:16:33.191Z,67.85
2023-05-21T18:18:38.161Z,67.78
2023-05-21T18:20:42.850Z,68.95
2023-05-21T18:22:47.845Z,69.70
2023-05-21T18:24:52.549Z,70.73
2023-05-21T18:27:00.102Z,71.42
2023-05-21T18:29:05.207Z,71.77
2023-05-21T18:31:10.143Z,72.31
2023-05-21T18:33:15.629Z,73.26
2023-05-21T18:35:20.776Z,73.73
2023-05-21T18:37:25.923Z,74.71
2023-05-21T18:39:30.927Z,75.35
2023-05-21T18:41:39.767Z,77.24
2023-05-21T18:43:47.586Z,77.93
2023-05-21T18:46:18.478Z,78.45
2023-05-21T18:48:23.498Z,78.65
2023-05-21T18:50:28.234Z,79.63
2023-05-21T18:52:33.181Z,79.93
2023-05-21T18:54:38.256Z,80.28
2023-05-21T18:56:42.978Z,82.29
2023-05-21T18:58:50.610Z,82.58
2023-05-21T19:00:58.141Z,82.52
2023-05-21T19:03:03.209Z,83.43
2023-05-21T19:05:09.512Z,84.27
2023-05-21T19:07:16.047Z,85.95
2023-05-21T19:09:21.065Z,86.66
2023-05-21T19:11:31.064Z,88.59
2023-05-21T19:13:36.883Z,89.53
2023-05-21T19:15:47.218Z,90.44
2023-05-21T19:17:54.469Z,90.95
2023-05-21T19:19:59.557Z,91.27
2023-05-21T19:22:04.481Z,93.64
2023-05-21T19:24:10.372Z,93.68
2023-05-21T19:26:15.447Z,95.77
2023-05-21T19:28:20.226Z,97.00
2023-05-21T19:30:25.184Z,96.57
2023-05-21T19:32:32.519Z,96.97
2023-05-21T19:34:37.525Z,97.91
2023-05-21T19:36:53.043Z,100.00
2023-05-21T19:39:01.089Z,100.00
2023-05-21T19:41:06.361Z,100.00
2023-05-21T19:43:11.417Z,100.00
2023-05-21T19:45:17.213Z,100.00
2023-05-21T19:47:22.306Z,100.00
2023-05-21T19:49:29.633Z,100.00
2023-05-21T19:51:34.692Z,100.00
2023-05-21T19:53:39.617Z,100.00
2023-05-21T19:55:44.862Z,100.00
2023-05-21T19:57:50.170Z,100.00
2023-05-21T19:59:55.206Z,100.00
2023-05-21T20:01:59.968Z,100.00
2023-05-21T20:04:05.326Z,100.00
2023-05-21T20:06:12.952Z,100.00
2023-05-21T20:08:22.115Z,100.00
2023-05-21T20:10:28.336Z,100.00
2023-05-21T20:12:33.255Z,100.00
2023-05-21T20:14:38.302Z,100.00
2023-05-21T20:16:43.274Z,100.00
2023-05-21T20:18:49.192Z,100.00
2023-05-21T20:20:55.195Z,100.00
2023-05-21T20:23:03.409Z,100.00
2023-05-21T20:25:10.763Z,100.00
2023-05-21T20:27:19.614Z,100.00
2023-05-21T20:29:24.643Z,100.00
2023-05-21T20:31:29.791Z,100.00
2023-05-21T20:33:39.369Z,100.00
2023-05-21T20:35:45.094Z,100.00
2023-05-21T20:37:49.865Z,100.00
2023-05-21T20:40:07.606Z,100.00
2023-05-21T20:42:22.835Z,100.00
2023-05-21T20:44:29.535Z,100.00
2023-05-21T20:47:11.906Z,100.00
2023-05-21T20:49:28.611Z,100.00
2023-05-21T20:51:46.856Z,100.00
2023-05-21T20:53:51.821Z,100.00
2023-05-21T20:56:01.763Z,100.00
2023-05-21T20:58:07.840Z,100.00
2023-05-21T21:00:13.982Z,100.00
2023-05-21T21:02:20.894Z,100.00
2023-05-21T21:04:25.900Z,100.00
2023-05-21T21:06:32.028Z,100.00
2023-05-21T21:08:37.075Z,100.00
2023-05-21T21:10:42.981Z,100.00
2023-05-21T21:12:50.845Z,100.00
2023-05-21T21:14:56.367Z,100.00
2023-05-21T21:17:01.837Z,100.00
2023-05-21T21:19:06.857Z,100.00
2023-05-21T21:21:11.724Z,100.00
2023-05-21T21:23:16.712Z,100.00
2023-05-21T21:25:23.023Z,100.00
2023-05-21T21:27:28.049Z,100.00
2023-05-21T21:29:35.603Z,100.00
2023-05-21T21:31:41.975Z,100.00
2023-05-21T21:33:46.712Z,100.00
2023-05-21T21:35:54.500Z,100.00
2023-05-21T21:37:59.581Z,100.00
2023-05-21T21:40:04.704Z,100.00
2023-05-21T21:42:10.161Z,100.00
2023-05-21T21:44:15.175Z,100.00
2023-05-21T21:46:27.807Z,100.00
2023-05-21T21:48:33.140Z,100.00
2023-05-21T21:50:38.762Z,100.00
2023-05-21T21:53:14.922Z,100.00
2023-05-21T21:55:43.004Z,100.00
2023-05-21T21:58:10.219Z,100.00
2023-05-21T22:00:28.966Z,100.00
2023-05-21T22:02:43.078Z,100.00
2023-05-21T22:04:51.209Z,100.00
2023-05-21T22:06:56.730Z,100.00
2023-05-21T22:09:08.896Z,100.00
2023-05-21T22:11:14.130Z,100.00
2023-05-21T22:13:21.576Z,100.00
2023-05-21T22:16:11.978Z,100.00
2023-05-21T22:18:42.108Z,100.00
2023-05-21T22:20:47.116Z,100.00
2023-05-21T22:22:54.795Z,100.00
2023-05-21T22:25:27.074Z,100.00
2023-05-21T22:27:32.071Z,100.00
2023-05-21T22:29:37.033Z,100.00
2023-05-21T22:31:57.675Z,100.00
2023-05-21T22:34:14.857Z,100.00
2023-05-21T22:36:27.045Z,100.00
2023-05-21T22:38:40.941Z,100.00
2023-05-21T22:40:46.280Z,100.00
2023-05-21T22:42:51.322Z,100.00
2023-05-21T22:44:56.078Z,100.00
2023-05-21T22:47:03.827Z,100.00
2023-05-21T22:49:11.619Z,100.00
2023-05-21T22:51:17.032Z,100.00
2023-05-21T22:53:22.105Z,100.00
2023-05-21T22:55:27.033Z,100.00
2023-05-21T22:57:31.994Z,100.00
2023-05-21T22:59:37.350Z,100.00
2023-05-21T23:01:42.392Z,100.00
2023-05-21T23:03:47.132Z,100.00
2023-05-21T23:05:54.927Z,100.00
2023-05-21T23:07:59.879Z,100.00
2023-05-21T23:10:04.890Z,100.00
2023-05-21T23:12:10.848Z,100.00
2023-05-21T23:14:15.876Z,100.00
2023-05-21T23:16:22.823Z,100.00
2023-05-21T23:18:27.862Z,100.00
2023-05-21T23:20:32.564Z,100.00
2023-05-21T23:22:43.982Z,100.00
2023-05-21T23:24:49.023Z,100.00
2023-05-21T23:26:57.965Z,100.00
2023-05-21T23:29:06.400Z,100.00
2023-05-21T23:31:11.554Z,100.00
2023-05-21T23:33:16.693Z,100.00
2023-05-21T23:35:21.483Z,100.00
2023-05-21T23:37:26.434Z,100.00
2023-05-21T23:39:34.008Z,100.00
2023-05-21T23:41:38.937Z,100.00
2023-05-21T23:43:43.808Z,100.00
2023-05-21T23:45:48.801Z,100.00
2023-05-21T23:47:53.879Z,100.00
2023-05-21T23:49:59.738Z,100.00
2023-05-21T23:52:04.820Z,100.00
2023-05-21T23:54:09.650Z,100.00
2023-05-21T23:56:17.177Z,100.00
2023-05-21T23:58:22.149Z,100.00
